createdAt,value
2023-03-16T00:05:20.877Z,167771.62
2023-03-16T00:21:03.330Z,167771.44
2023-03-16T00:36:46.012Z,167771.25
2023-03-16T00:52:28.741Z,167771.2
2023-03-16T01:08:11.532Z,167771.07
2023-03-16T01:23:53.921Z,167770.9
2023-03-16T01:39:36.756Z,167770.71
2023-03-16T01:55:19.011Z,167770.5
2023-03-16T02:11:02.213Z,167770.33
2023-03-16T02:26:45.318Z,167770.22
2023-03-16T02:42:27.823Z,167770.2
2023-03-16T02:58:10.271Z,167770.15
2023-03-16T03:13:53.246Z,167770.06
2023-03-16T03:29:35.771Z,167769.95
2023-03-16T03:45:18.398Z,167769.94
2023-03-16T03:46:05.874Z,167770.14
2023-03-16T04:01:48.808Z,167770
2023-03-16T04:17:31.340Z,167769.94
2023-03-16T04:33:14.540Z,167769.93
2023-03-16T04:48:57.734Z,167769.89
2023-03-16T05:04:40.687Z,167769.88
2023-03-16T05:20:22.948Z,167769.78
2023-03-16T05:36:06.057Z,167769.84
2023-03-16T05:51:48.288Z,167770.01
2023-03-16T06:07:30.593Z,167770.22
2023-03-16T06:23:13.628Z,167770.56
2023-03-16T06:38:56.693Z,167771
2023-03-16T06:54:39.034Z,167771.6
2023-03-16T07:10:21.993Z,0.06
2023-03-16T07:26:04.702Z,0.66
2023-03-16T07:41:46.857Z,1.35
2023-03-16T07:57:29.810Z,2.08
2023-03-16T08:13:12.870Z,2.93
2023-03-16T08:28:55.559Z,4.21
2023-03-16T09:00:20.685Z,7.9
2023-03-16T09:16:03.019Z,8.47
2023-03-16T09:31:45.691Z,9.25
2023-03-16T09:47:27.830Z,10.4
2023-03-16T10:03:10.325Z,10.89
2023-03-16T10:18:52.483Z,11.82
2023-03-16T10:34:35.416Z,12.66
2023-03-16T10:50:17.706Z,13.61
2023-03-16T11:06:00.069Z,15.02
2023-03-16T11:21:43.066Z,14.66
2023-03-16T11:37:25.599Z,15.77
2023-03-16T11:53:08.279Z,17.18
2023-03-16T12:08:50.671Z,18.35
2023-03-16T12:24:33.335Z,18.84
2023-03-16T12:40:15.877Z,19.81
2023-03-16T12:55:58.717Z,20.72
2023-03-16T13:11:41.367Z,21.85
2023-03-16T13:27:24.045Z,22.04
2023-03-16T13:43:06.161Z,22.38
2023-03-16T13:58:48.494Z,22.71
2023-03-16T14:14:30.675Z,22.93
2023-03-16T14:30:13.154Z,22.59
2023-03-16T14:45:55.836Z,22.42
2023-03-16T15:01:37.955Z,22.83
2023-03-16T15:17:20.785Z,18.12
2023-03-16T15:33:03.585Z,14.22
2023-03-16T15:48:46.648Z,11.68
2023-03-16T16:04:29.181Z,10.13
2023-03-16T16:20:11.654Z,9.18
2023-03-16T16:35:53.934Z,8.47
2023-03-16T16:51:36.448Z,7.86
2023-03-16T17:07:18.748Z,7.33
2023-03-16T17:23:01.410Z,6.75
2023-03-16T17:38:43.557Z,6.27
2023-03-16T17:54:26.124Z,5.84
2023-03-16T18:10:09.058Z,5.49
2023-03-16T18:25:51.834Z,5.36
2023-03-16T18:41:34.433Z,5.45
2023-03-16T18:57:16.751Z,5.51
2023-03-16T19:12:59.002Z,5.49
2023-03-16T19:28:41.521Z,5.35
2023-03-16T19:44:24.620Z,5.18
2023-03-16T20:00:07.421Z,4.96
2023-03-16T20:15:50.099Z,4.92
2023-03-16T20:31:32.728Z,4.98
2023-03-16T20:47:14.920Z,5.01
2023-03-16T21:02:57.767Z,5.03
2023-03-16T21:18:40.917Z,4.98
2023-03-16T21:34:23.329Z,4.96
2023-03-16T21:50:05.758Z,4.88
2023-03-16T22:05:48.406Z,4.69
2023-03-16T22:21:30.835Z,4.51
2023-03-16T22:37:13.325Z,4.59
2023-03-16T22:52:56.135Z,4.56
2023-03-16T23:08:38.905Z,4.5
2023-03-16T23:24:21.657Z,4.48
2023-03-16T23:40:03.904Z,4.4
2023-03-16T23:55:46.280Z,4.28
